sensor_id;sensor_type;location;lat;lon;timestamp;temperature;humidity
25154;DHT22;47555;51.038;6.280;2023-09-08T17:07:43;17.40;99.90
25154;DHT22;47555;51.038;6.280;2023-09-08T17:10:09;29.90;31.10
25154;DHT22;47555;51.038;6.280;2023-09-08T17:12:35;29.50;31.40
25154;DHT22;47555;51.038;6.280;2023-09-08T17:15:00;29.40;31.40
25154;DHT22;47555;51.038;6.280;2023-09-08T17:17:33;29.30;31.40
25154;DHT22;47555;51.038;6.280;2023-09-08T17:19:59;29.20;32.20
25154;DHT22;47555;51.038;6.280;2023-09-08T17:22:24;29.10;32.80
25154;DHT22;47555;51.038;6.280;2023-09-08T17:24:50;29.00;33.60
25154;DHT22;47555;51.038;6.280;2023-09-08T17:27:16;29.00;35.00
25154;DHT22;47555;51.038;6.280;2023-09-08T17:29:42;28.80;36.30
25154;DHT22;47555;51.038;6.280;2023-09-08T17:32:08;28.80;37.50
25154;DHT22;47555;51.038;6.280;2023-09-08T17:34:34;28.60;38.40
25154;DHT22;47555;51.038;6.280;2023-09-08T17:37:02;28.50;39.10
25154;DHT22;47555;51.038;6.280;2023-09-08T17:39:28;28.40;39.80
25154;DHT22;47555;51.038;6.280;2023-09-08T17:41:55;28.30;40.90
25154;DHT22;47555;51.038;6.280;2023-09-08T17:44:20;28.20;42.30
25154;DHT22;47555;51.038;6.280;2023-09-08T17:46:46;28.10;43.00
25154;DHT22;47555;51.038;6.280;2023-09-08T17:49:12;28.00;43.80
25154;DHT22;47555;51.038;6.280;2023-09-08T17:51:38;27.90;44.50
25154;DHT22;47555;51.038;6.280;2023-09-08T17:54:03;27.80;45.90
25154;DHT22;47555;51.038;6.280;2023-09-08T17:56:29;27.70;48.00
25154;DHT22;47555;51.038;6.280;2023-09-08T17:58:54;27.60;48.90
25154;DHT22;47555;51.038;6.280;2023-09-08T18:01:20;27.50;49.70
25154;DHT22;47555;51.038;6.280;2023-09-08T18:03:46;27.30;50.80
25154;DHT22;47555;51.038;6.280;2023-09-08T18:06:13;27.20;52.00
25154;DHT22;47555;51.038;6.280;2023-09-08T18:08:38;27.10;53.00
25154;DHT22;47555;51.038;6.280;2023-09-08T18:11:04;26.90;53.60
25154;DHT22;47555;51.038;6.280;2023-09-08T18:13:30;26.80;54.90
25154;DHT22;47555;51.038;6.280;2023-09-08T18:16:00;26.70;56.00
25154;DHT22;47555;51.038;6.280;2023-09-08T18:18:26;26.60;56.80
25154;DHT22;47555;51.038;6.280;2023-09-08T18:20:52;26.40;58.30
25154;DHT22;47555;51.038;6.280;2023-09-08T18:23:18;26.30;60.00
25154;DHT22;47555;51.038;6.280;2023-09-08T18:25:45;26.10;61.60
25154;DHT22;47555;51.038;6.280;2023-09-08T18:28:14;26.00;63.30
25154;DHT22;47555;51.038;6.280;2023-09-08T18:30:41;25.80;64.20
25154;DHT22;47555;51.038;6.280;2023-09-08T18:33:09;25.80;66.70
25154;DHT22;47555;51.038;6.280;2023-09-08T18:35:36;25.60;69.10
25154;DHT22;47555;51.038;6.280;2023-09-08T18:38:05;25.50;70.30
25154;DHT22;47555;51.038;6.280;2023-09-08T18:40:34;25.40;71.50
25154;DHT22;47555;51.038;6.280;2023-09-08T18:43:00;25.30;74.00
25154;DHT22;47555;51.038;6.280;2023-09-08T18:45:25;25.30;75.80
25154;DHT22;47555;51.038;6.280;2023-09-08T18:47:51;25.10;76.60
25154;DHT22;47555;51.038;6.280;2023-09-08T18:50:19;25.10;78.20
25154;DHT22;47555;51.038;6.280;2023-09-08T18:52:45;25.00;79.50
25154;DHT22;47555;51.038;6.280;2023-09-08T18:55:16;24.90;80.20
25154;DHT22;47555;51.038;6.280;2023-09-08T18:57:42;24.80;81.30
25154;DHT22;47555;51.038;6.280;2023-09-08T19:00:08;24.70;82.50
25154;DHT22;47555;51.038;6.280;2023-09-08T19:02:36;24.60;83.50
25154;DHT22;47555;51.038;6.280;2023-09-08T19:05:03;24.60;85.40
25154;DHT22;47555;51.038;6.280;2023-09-08T19:07:31;24.50;86.90
25154;DHT22;47555;51.038;6.280;2023-09-08T19:09:57;24.40;88.30
25154;DHT22;47555;51.038;6.280;2023-09-08T19:12:23;24.30;89.80
25154;DHT22;47555;51.038;6.280;2023-09-08T19:14:48;24.30;91.00
25154;DHT22;47555;51.038;6.280;2023-09-08T19:17:14;24.20;92.20
25154;DHT22;47555;51.038;6.280;2023-09-08T19:19:39;24.10;93.30
25154;DHT22;47555;51.038;6.280;2023-09-08T19:22:06;24.00;94.40
25154;DHT22;47555;51.038;6.280;2023-09-08T19:24:31;23.90;95.50
25154;DHT22;47555;51.038;6.280;2023-09-08T19:26:58;23.90;96.40
25154;DHT22;47555;51.038;6.280;2023-09-08T19:29:23;23.80;97.00
25154;DHT22;47555;51.038;6.280;2023-09-08T19:31:49;23.70;98.20
25154;DHT22;47555;51.038;6.280;2023-09-08T19:34:14;23.70;97.80
25154;DHT22;47555;51.038;6.280;2023-09-08T19:36:40;23.70;98.20
25154;DHT22;47555;51.038;6.280;2023-09-08T19:39:06;23.60;98.50
25154;DHT22;47555;51.038;6.280;2023-09-08T19:41:33;23.50;98.90
25154;DHT22;47555;51.038;6.280;2023-09-08T19:43:58;23.50;99.50
25154;DHT22;47555;51.038;6.280;2023-09-08T19:46:24;23.40;99.80
25154;DHT22;47555;51.038;6.280;2023-09-08T19:48:49;23.20;99.90
25154;DHT22;47555;51.038;6.280;2023-09-08T19:51:15;23.20;99.90
25154;DHT22;47555;51.038;6.280;2023-09-08T19:53:42;23.10;99.90
25154;DHT22;47555;51.038;6.280;2023-09-08T19:56:07;23.10;99.90
25154;DHT22;47555;51.038;6.280;2023-09-08T19:58:33;22.90;99.90
25154;DHT22;47555;51.038;6.280;2023-09-08T20:01:06;22.80;99.90
25154;DHT22;47555;51.038;6.280;2023-09-08T20:03:32;22.70;99.90
25154;DHT22;47555;51.038;6.280;2023-09-08T20:05:59;22.60;99.90
25154;DHT22;47555;51.038;6.280;2023-09-08T20:08:25;22.50;99.90
25154;DHT22;47555;51.038;6.280;2023-09-08T20:10:51;22.50;99.90
25154;DHT22;47555;51.038;6.280;2023-09-08T20:13:18;22.40;99.90
25154;DHT22;47555;51.038;6.280;2023-09-08T20:15:44;22.30;99.90
25154;DHT22;47555;51.038;6.280;2023-09-08T20:18:09;22.30;99.90
25154;DHT22;47555;51.038;6.280;2023-09-08T20:20:35;22.30;99.90
25154;DHT22;47555;51.038;6.280;2023-09-08T20:23:00;22.30;99.90
25154;DHT22;47555;51.038;6.280;2023-09-08T20:25:26;22.20;99.90
25154;DHT22;47555;51.038;6.280;2023-09-08T20:27:52;22.20;99.90
25154;DHT22;47555;51.038;6.280;2023-09-08T20:30:18;22.20;99.90
25154;DHT22;47555;51.038;6.280;2023-09-08T20:32:43;22.10;99.90
25154;DHT22;47555;51.038;6.280;2023-09-08T20:35:09;22.00;99.90
25154;DHT22;47555;51.038;6.280;2023-09-08T20:37:34;21.90;99.90
25154;DHT22;47555;51.038;6.280;2023-09-08T20:40:00;21.80;99.90
25154;DHT22;47555;51.038;6.280;2023-09-08T20:42:25;21.70;99.90
25154;DHT22;47555;51.038;6.280;2023-09-08T20:44:51;21.70;99.90
25154;DHT22;47555;51.038;6.280;2023-09-08T20:47:17;21.60;99.90
25154;DHT22;47555;51.038;6.280;2023-09-08T20:49:43;21.60;99.90
25154;DHT22;47555;51.038;6.280;2023-09-08T20:52:08;21.50;99.90
25154;DHT22;47555;51.038;6.280;2023-09-08T20:54:37;21.50;99.90
25154;DHT22;47555;51.038;6.280;2023-09-08T20:57:03;21.40;99.90
25154;DHT22;47555;51.038;6.280;2023-09-08T20:59:29;21.40;99.90
25154;DHT22;47555;51.038;6.280;2023-09-08T21:01:54;21.40;99.90
25154;DHT22;47555;51.038;6.280;2023-09-08T21:04:20;21.40;99.90
25154;DHT22;47555;51.038;6.280;2023-09-08T21:06:45;21.40;99.90
25154;DHT22;47555;51.038;6.280;2023-09-08T21:09:11;21.40;99.90
25154;DHT22;47555;51.038;6.280;2023-09-08T21:11:38;21.40;99.90
25154;DHT22;47555;51.038;6.280;2023-09-08T21:14:03;21.30;99.90
25154;DHT22;47555;51.038;6.280;2023-09-08T21:16:32;21.30;99.90
25154;DHT22;47555;51.038;6.280;2023-09-08T21:18:57;21.30;99.90
25154;DHT22;47555;51.038;6.280;2023-09-08T21:21:23;21.20;99.90
25154;DHT22;47555;51.038;6.280;2023-09-08T21:23:48;21.20;99.90
25154;DHT22;47555;51.038;6.280;2023-09-08T21:26:14;21.10;99.90
25154;DHT22;47555;51.038;6.280;2023-09-08T21:28:41;21.10;99.90
25154;DHT22;47555;51.038;6.280;2023-09-08T21:31:08;21.00;99.90
25154;DHT22;47555;51.038;6.280;2023-09-08T21:33:34;21.00;99.90
25154;DHT22;47555;51.038;6.280;2023-09-08T21:36:05;21.10;99.90
25154;DHT22;47555;51.038;6.280;2023-09-08T21:38:30;20.90;99.90
25154;DHT22;47555;51.038;6.280;2023-09-08T21:40:56;20.90;99.90
25154;DHT22;47555;51.038;6.280;2023-09-08T21:43:22;20.90;99.90
25154;DHT22;47555;51.038;6.280;2023-09-08T21:45:48;20.80;99.90
25154;DHT22;47555;51.038;6.280;2023-09-08T21:48:19;20.80;99.90
25154;DHT22;47555;51.038;6.280;2023-09-08T21:50:45;20.70;99.90
25154;DHT22;47555;51.038;6.280;2023-09-08T21:53:11;20.70;99.90
25154;DHT22;47555;51.038;6.280;2023-09-08T21:55:37;20.70;99.90
25154;DHT22;47555;51.038;6.280;2023-09-08T21:58:04;20.60;99.90
25154;DHT22;47555;51.038;6.280;2023-09-08T22:00:31;20.60;99.90
25154;DHT22;47555;51.038;6.280;2023-09-08T22:02:56;20.50;99.90
25154;DHT22;47555;51.038;6.280;2023-09-08T22:05:22;20.50;99.90
25154;DHT22;47555;51.038;6.280;2023-09-08T22:07:47;20.50;99.90
25154;DHT22;47555;51.038;6.280;2023-09-08T22:10:13;20.40;99.90
25154;DHT22;47555;51.038;6.280;2023-09-08T22:12:38;20.40;99.90
25154;DHT22;47555;51.038;6.280;2023-09-08T22:15:04;20.30;99.90
25154;DHT22;47555;51.038;6.280;2023-09-08T22:17:30;20.30;99.90
25154;DHT22;47555;51.038;6.280;2023-09-08T22:19:58;20.30;99.90
25154;DHT22;47555;51.038;6.280;2023-09-08T22:22:23;20.30;99.90
25154;DHT22;47555;51.038;6.280;2023-09-08T22:24:49;20.30;99.90
25154;DHT22;47555;51.038;6.280;2023-09-08T22:27:14;20.20;99.90
25154;DHT22;47555;51.038;6.280;2023-09-08T22:29:40;20.10;99.90
25154;DHT22;47555;51.038;6.280;2023-09-08T22:32:06;20.10;99.90
25154;DHT22;47555;51.038;6.280;2023-09-08T22:34:32;20.10;99.90
25154;DHT22;47555;51.038;6.280;2023-09-08T22:36:57;20.00;99.90
25154;DHT22;47555;51.038;6.280;2023-09-08T22:39:23;20.00;99.90
25154;DHT22;47555;51.038;6.280;2023-09-08T22:41:49;20.00;99.90
25154;DHT22;47555;51.038;6.280;2023-09-08T22:44:15;19.90;99.90
25154;DHT22;47555;51.038;6.280;2023-09-08T22:46:40;19.90;99.90
25154;DHT22;47555;51.038;6.280;2023-09-08T22:49:06;19.90;99.90
25154;DHT22;47555;51.038;6.280;2023-09-08T22:51:31;19.80;99.90
25154;DHT22;47555;51.038;6.280;2023-09-08T22:53:57;19.80;99.90
25154;DHT22;47555;51.038;6.280;2023-09-08T22:56:23;19.80;99.90
25154;DHT22;47555;51.038;6.280;2023-09-08T22:58:48;19.70;99.90
25154;DHT22;47555;51.038;6.280;2023-09-08T23:01:14;19.70;99.90
25154;DHT22;47555;51.038;6.280;2023-09-08T23:03:39;19.70;99.90
